sensor_id;sensor_type;location;lat;lon;timestamp;pressure;altitude;pressure_sealevel;temperature;humidity
10668;BME280;5382;42.136;24.796;2023-04-21T00:00:49;99433.66;;;12.60;100.00
10668;BME280;5382;42.136;24.796;2023-04-21T00:03:17;99436.31;;;12.60;100.00
10668;BME280;5382;42.136;24.796;2023-04-21T00:05:46;99433.00;;;12.68;100.00
10668;BME280;5382;42.136;24.796;2023-04-21T00:08:13;99429.59;;;12.56;100.00
10668;BME280;5382;42.136;24.796;2023-04-21T00:10:40;99429.91;;;12.62;100.00
10668;BME280;5382;42.136;24.796;2023-04-21T00:13:09;99423.97;;;12.49;100.00
10668;BME280;5382;42.136;24.796;2023-04-21T00:15:36;99427.28;;;12.41;100.00
10668;BME280;5382;42.136;24.796;2023-04-21T00:18:03;99428.97;;;12.42;100.00
10668;BME280;5382;42.136;24.796;2023-04-21T00:20:30;99425.31;;;12.34;100.00
10668;BME280;5382;42.136;24.796;2023-04-21T00:22:58;99422.84;;;12.42;100.00
10668;BME280;5382;42.136;24.796;2023-04-21T00:25:25;99419.91;;;12.45;100.00
10668;BME280;5382;42.136;24.796;2023-04-21T00:27:52;99422.97;;;12.40;100.00
10668;BME280;5382;42.136;24.796;2023-04-21T00:30:20;99418.88;;;12.36;100.00
10668;BME280;5382;42.136;24.796;2023-04-21T00:32:47;99417.31;;;12.24;100.00
10668;BME280;5382;42.136;24.796;2023-04-21T00:35:14;99411.13;;;12.14;100.00
10668;BME280;5382;42.136;24.796;2023-04-21T00:37:41;99415.66;;;12.02;100.00
10668;BME280;5382;42.136;24.796;2023-04-21T00:40:08;99413.66;;;11.94;100.00
10668;BME280;5382;42.136;24.796;2023-04-21T00:42:35;99409.97;;;11.86;100.00
10668;BME280;5382;42.136;24.796;2023-04-21T00:45:03;99416.22;;;11.85;100.00
10668;BME280;5382;42.136;24.796;2023-04-21T00:47:31;99418.41;;;11.79;100.00
10668;BME280;5382;42.136;24.796;2023-04-21T00:49:58;99418.22;;;11.71;100.00
10668;BME280;5382;42.136;24.796;2023-04-21T00:52:25;99417.97;;;11.53;100.00
10668;BME280;5382;42.136;24.796;2023-04-21T00:54:53;99412.00;;;11.40;100.00
10668;BME280;5382;42.136;24.796;2023-04-21T00:57:20;99419.19;;;11.28;100.00
10668;BME280;5382;42.136;24.796;2023-04-21T00:59:47;99405.13;;;11.17;100.00
10668;BME280;5382;42.136;24.796;2023-04-21T01:02:14;99411.88;;;11.21;100.00
10668;BME280;5382;42.136;24.796;2023-04-21T01:04:43;99411.63;;;11.24;100.00
10668;BME280;5382;42.136;24.796;2023-04-21T01:07:10;99411.63;;;11.24;100.00
10668;BME280;5382;42.136;24.796;2023-04-21T01:09:37;99406.56;;;11.21;100.00
10668;BME280;5382;42.136;24.796;2023-04-21T01:12:05;99405.84;;;11.19;100.00
10668;BME280;5382;42.136;24.796;2023-04-21T01:14:33;99406.81;;;11.18;100.00
10668;BME280;5382;42.136;24.796;2023-04-21T01:17:00;99401.66;;;11.16;100.00
10668;BME280;5382;42.136;24.796;2023-04-21T01:19:30;99410.31;;;11.18;100.00
10668;BME280;5382;42.136;24.796;2023-04-21T01:22:00;99407.88;;;11.26;100.00
10668;BME280;5382;42.136;24.796;2023-04-21T01:24:35;99411.69;;;11.33;100.00
10668;BME280;5382;42.136;24.796;2023-04-21T01:27:01;99409.50;;;11.39;100.00
10668;BME280;5382;42.136;24.796;2023-04-21T01:29:31;99404.97;;;11.50;100.00
10668;BME280;5382;42.136;24.796;2023-04-21T01:32:03;99409.72;;;11.47;100.00
10668;BME280;5382;42.136;24.796;2023-04-21T01:34:30;99405.81;;;11.51;100.00
10668;BME280;5382;42.136;24.796;2023-04-21T01:36:57;99413.38;;;11.55;100.00
10668;BME280;5382;42.136;24.796;2023-04-21T01:39:26;99414.81;;;11.60;100.00
10668;BME280;5382;42.136;24.796;2023-04-21T01:41:53;99411.78;;;11.64;100.00
10668;BME280;5382;42.136;24.796;2023-04-21T01:44:23;99396.91;;;11.73;100.00
10668;BME280;5382;42.136;24.796;2023-04-21T01:46:50;99409.19;;;11.74;100.00
10668;BME280;5382;42.136;24.796;2023-04-21T01:49:17;99401.56;;;11.81;100.00
10668;BME280;5382;42.136;24.796;2023-04-21T01:51:44;99397.22;;;11.79;100.00
10668;BME280;5382;42.136;24.796;2023-04-21T01:54:11;99401.94;;;11.76;100.00
10668;BME280;5382;42.136;24.796;2023-04-21T01:56:39;99405.81;;;11.72;100.00
10668;BME280;5382;42.136;24.796;2023-04-21T01:59:06;99418.88;;;11.64;100.00
10668;BME280;5382;42.136;24.796;2023-04-21T02:01:32;99416.41;;;11.72;100.00
10668;BME280;5382;42.136;24.796;2023-04-21T02:04:00;99425.41;;;11.81;100.00
10668;BME280;5382;42.136;24.796;2023-04-21T02:06:27;99418.94;;;11.73;100.00
10668;BME280;5382;42.136;24.796;2023-04-21T02:08:55;99431.38;;;11.73;100.00
10668;BME280;5382;42.136;24.796;2023-04-21T02:11:22;99424.38;;;11.72;100.00
10668;BME280;5382;42.136;24.796;2023-04-21T02:13:51;99427.75;;;11.74;100.00
10668;BME280;5382;42.136;24.796;2023-04-21T02:16:17;99432.59;;;11.69;100.00
10668;BME280;5382;42.136;24.796;2023-04-21T02:18:45;99415.72;;;11.70;100.00
10668;BME280;5382;42.136;24.796;2023-04-21T02:21:13;99427.94;;;11.61;100.00
10668;BME280;5382;42.136;24.796;2023-04-21T02:23:39;99418.88;;;11.64;100.00
10668;BME280;5382;42.136;24.796;2023-04-21T02:26:06;99418.38;;;11.70;100.00
10668;BME280;5382;42.136;24.796;2023-04-21T02:28:33;99417.59;;;11.79;100.00
10668;BME280;5382;42.136;24.796;2023-04-21T02:31:01;99409.91;;;11.76;100.00
10668;BME280;5382;42.136;24.796;2023-04-21T02:33:28;99417.75;;;11.77;100.00
10668;BME280;5382;42.136;24.796;2023-04-21T02:35:55;99406.41;;;11.75;100.00
10668;BME280;5382;42.136;24.796;2023-04-21T02:38:22;99394.75;;;11.67;100.00
10668;BME280;5382;42.136;24.796;2023-04-21T02:40:49;99408.47;;;11.72;100.00
10668;BME280;5382;42.136;24.796;2023-04-21T02:43:16;99409.00;;;11.66;100.00
10668;BME280;5382;42.136;24.796;2023-04-21T02:45:43;99402.59;;;11.68;100.00
10668;BME280;5382;42.136;24.796;2023-04-21T02:48:11;99401.56;;;11.60;100.00
10668;BME280;5382;42.136;24.796;2023-04-21T02:50:38;99404.50;;;11.56;100.00
10668;BME280;5382;42.136;24.796;2023-04-21T02:53:06;99406.88;;;11.60;100.00
10668;BME280;5382;42.136;24.796;2023-04-21T02:55:32;99400.03;;;11.57;100.00
10668;BME280;5382;42.136;24.796;2023-04-21T02:57:59;99404.06;;;11.61;100.00
10668;BME280;5382;42.136;24.796;2023-04-21T03:00:26;99401.44;;;11.61;100.00
10668;BME280;5382;42.136;24.796;2023-04-21T03:02:53;99410.47;;;11.58;100.00
10668;BME280;5382;42.136;24.796;2023-04-21T03:05:21;99402.06;;;11.32;100.00
10668;BME280;5382;42.136;24.796;2023-04-21T03:07:48;99409.50;;;11.39;100.00
10668;BME280;5382;42.136;24.796;2023-04-21T03:10:15;99409.16;;;11.32;100.00
10668;BME280;5382;42.136;24.796;2023-04-21T03:12:41;99405.59;;;11.22;100.00
10668;BME280;5382;42.136;24.796;2023-04-21T03:15:08;99406.94;;;11.16;100.00
10668;BME280;5382;42.136;24.796;2023-04-21T03:17:35;99407.44;;;11.10;100.00
10668;BME280;5382;42.136;24.796;2023-04-21T03:20:03;99407.28;;;10.90;100.00
10668;BME280;5382;42.136;24.796;2023-04-21T03:22:34;99419.38;;;11.04;100.00
10668;BME280;5382;42.136;24.796;2023-04-21T03:25:01;99424.81;;;11.03;100.00
10668;BME280;5382;42.136;24.796;2023-04-21T03:27:27;99424.28;;;11.09;100.00
10668;BME280;5382;42.136;24.796;2023-04-21T03:29:54;99426.38;;;11.05;100.00
10668;BME280;5382;42.136;24.796;2023-04-21T03:32:21;99424.41;;;11.07;100.00
10668;BME280;5382;42.136;24.796;2023-04-21T03:34:48;99432.59;;;11.16;100.00
10668;BME280;5382;42.136;24.796;2023-04-21T03:37:15;99432.13;;;11.10;100.00
10668;BME280;5382;42.136;24.796;2023-04-21T03:39:43;99432.44;;;11.17;100.00
10668;BME280;5382;42.136;24.796;2023-04-21T03:42:10;99439.44;;;11.18;100.00
10668;BME280;5382;42.136;24.796;2023-04-21T03:44:37;99436.59;;;10.99;100.00
10668;BME280;5382;42.136;24.796;2023-04-21T03:47:04;99442.19;;;10.73;100.00
10668;BME280;5382;42.136;24.796;2023-04-21T03:49:32;99449.53;;;10.47;100.00
10668;BME280;5382;42.136;24.796;2023-04-21T03:51:59;99446.44;;;10.31;100.00
10668;BME280;5382;42.136;24.796;2023-04-21T03:54:26;99444.22;;;10.24;100.00
10668;BME280;5382;42.136;24.796;2023-04-21T03:56:54;99449.25;;;10.16;100.00
10668;BME280;5382;42.136;24.796;2023-04-21T03:59:21;99446.72;;;10.03;100.00
10668;BME280;5382;42.136;24.796;2023-04-21T04:01:48;99445.03;;;10.02;100.00
10668;BME280;5382;42.136;24.796;2023-04-21T04:04:15;99440.34;;;9.95;100.00
10668;BME280;5382;42.136;24.796;2023-04-21T04:06:42;99449.94;;;9.96;100.00
10668;BME280;5382;42.136;24.796;2023-04-21T04:09:09;99453.56;;;10.06;100.00
10668;BME280;5382;42.136;24.796;2023-04-21T04:11:35;99458.50;;;10.11;100.00
10668;BME280;5382;42.136;24.796;2023-04-21T04:14:04;99454.75;;;9.91;100.00
10668;BME280;5382;42.136;24.796;2023-04-21T04:16:32;99450.63;;;9.75;100.00
10668;BME280;5382;42.136;24.796;2023-04-21T04:18:59;99448.09;;;9.74;100.00
10668;BME280;5382;42.136;24.796;2023-04-21T04:21:27;99447.63;;;9.45;100.00
10668;BME280;5382;42.136;24.796;2023-04-21T04:23:53;99451.00;;;9.47;100.00
10668;BME280;5382;42.136;24.796;2023-04-21T04:26:21;99460.41;;;9.51;100.00
10668;BME280;5382;42.136;24.796;2023-04-21T04:28:49;99457.28;;;9.57;100.00
10668;BME280;5382;42.136;24.796;2023-04-21T04:31:17;99453.75;;;9.80;100.00
10668;BME280;5382;42.136;24.796;2023-04-21T04:33:45;99463.66;;;10.01;100.00
10668;BME280;5382;42.136;24.796;2023-04-21T04:36:11;99462.53;;;10.28;100.00
10668;BME280;5382;42.136;24.796;2023-04-21T04:38:38;99466.50;;;10.33;100.00
10668;BME280;5382;42.136;24.796;2023-04-21T04:41:06;99464.81;;;10.55;100.00
10668;BME280;5382;42.136;24.796;2023-04-21T04:43:33;99471.66;;;10.68;100.00
10668;BME280;5382;42.136;24.796;2023-04-21T04:46:01;99463.56;;;10.93;100.00
10668;BME280;5382;42.136;24.796;2023-04-21T04:48:29;99464.13;;;11.07;100.00
10668;BME280;5382;42.136;24.796;2023-04-21T04:50:56;99473.25;;;11.26;100.00
10668;BME280;5382;42.136;24.796;2023-04-21T04:53:23;99471.84;;;11.43;100.00
10668;BME280;5382;42.136;24.796;2023-04-21T04:55:50;99480.47;;;11.56;100.00
10668;BME280;5382;42.136;24.796;2023-04-21T04:58:17;99479.56;;;11.67;100.00
10668;BME280;5382;42.136;24.796;2023-04-21T05:00:44;99480.25;;;11.80;100.00
10668;BME280;5382;42.136;24.796;2023-04-21T05:03:11;99479.22;;;11.92;100.00
10668;BME280;5382;42.136;24.796;2023-04-21T05:05:45;99477.94;;;11.87;100.00
10668;BME280;5382;42.136;24.796;2023-04-21T05:08:12;99475.19;;;11.88;100.00
10668;BME280;5382;42.136;24.796;2023-04-21T05:10:38;99479.94;;;11.94;100.00
10668;BME280;5382;42.136;24.796;2023-04-21T05:13:05;99486.88;;;12.07;100.00
10668;BME280;5382;42.136;24.796;2023-04-21T05:15:32;99485.25;;;12.15;100.00
10668;BME280;5382;42.136;24.796;2023-04-21T05:17:59;99484.78;;;12.31;100.00
10668;BME280;5382;42.136;24.796;2023-04-21T05:20:25;99488.31;;;12.41;100.00
10668;BME280;5382;42.136;24.796;2023-04-21T05:22:53;99481.94;;;12.54;100.00
10668;BME280;5382;42.136;24.796;2023-04-21T05:25:20;99478.50;;;12.63;100.00
10668;BME280;5382;42.136;24.796;2023-04-21T05:27:47;99477.44;;;12.75;100.00
10668;BME280;5382;42.136;24.796;2023-04-21T05:30:14;99477.72;;;12.82;100.00
10668;BME280;5382;42.136;24.796;2023-04-21T05:32:41;99484.47;;;12.96;100.00
10668;BME280;5382;42.136;24.796;2023-04-21T05:35:08;99482.84;;;13.04;100.00
10668;BME280;5382;42.136;24.796;2023-04-21T05:37:35;99478.91;;;13.08;100.00
10668;BME280;5382;42.136;24.796;2023-04-21T05:40:03;99491.09;;;13.21;100.00
10668;BME280;5382;42.136;24.796;2023-04-21T05:42:30;99481.25;;;13.33;100.00
10668;BME280;5382;42.136;24.796;2023-04-21T05:44:57;99490.31;;;13.40;100.00
10668;BME280;5382;42.136;24.796;2023-04-21T05:47:24;99480.09;;;13.45;100.00
10668;BME280;5382;42.136;24.796;2023-04-21T05:49:51;99482.66;;;13.56;100.00
10668;BME280;5382;42.136;24.796;2023-04-21T05:52:18;99471.44;;;13.62;100.00
10668;BME280;5382;42.136;24.796;2023-04-21T05:54:45;99482.63;;;13.75;100.00
10668;BME280;5382;42.136;24.796;2023-04-21T05:57:13;99489.06;;;13.83;100.00
10668;BME280;5382;42.136;24.796;2023-04-21T05:59:42;99480.25;;;13.92;100.00
10668;BME280;5382;42.136;24.796;2023-04-21T06:02:08;99472.22;;;14.02;100.00
10668;BME280;5382;42.136;24.796;2023-04-21T06:04:35;99469.44;;;14.13;100.00
10668;BME280;5382;42.136;24.796;2023-04-21T06:07:05;99460.97;;;14.27;100.00
10668;BME280;5382;42.136;24.796;2023-04-21T06:09:32;99452.44;;;14.33;100.00
10668;BME280;5382;42.136;24.796;2023-04-21T06:11:59;99470.75;;;14.46;100.00
10668;BME280;5382;42.136;24.796;2023-04-21T06:14:27;99465.94;;;14.50;100.00
10668;BME280;5382;42.136;24.796;2023-04-21T06:16:54;99481.34;;;14.56;100.00
10668;BME280;5382;42.136;24.796;2023-04-21T06:19:21;99467.91;;;14.57;100.00
10668;BME280;5382;42.136;24.796;2023-04-21T06:21:48;99481.19;;;14.67;100.00
10668;BME280;5382;42.136;24.796;2023-04-21T06:24:16;99457.63;;;14.72;100.00
10668;BME280;5382;42.136;24.796;2023-04-21T06:26:49;99453.78;;;14.85;100.00
10668;BME280;5382;42.136;24.796;2023-04-21T06:29:16;99471.97;;;14.89;100.00
10668;BME280;5382;42.136;24.796;2023-04-21T06:31:45;99458.38;;;14.92;100.00
10668;BME280;5382;42.136;24.796;2023-04-21T06:34:12;99459.28;;;15.01;100.00
10668;BME280;5382;42.136;24.796;2023-04-21T06:36:39;99480.56;;;15.11;100.00
10668;BME280;5382;42.136;24.796;2023-04-21T06:39:06;99453.91;;;15.11;100.00
10668;BME280;5382;42.136;24.796;2023-04-21T06:41:33;99461.72;;;15.12;100.00
10668;BME280;5382;42.136;24.796;2023-04-21T06:44:00;99463.56;;;15.12;100.00
10668;BME280;5382;42.136;24.796;2023-04-21T06:46:26;99446.97;;;15.18;100.00
10668;BME280;5382;42.136;24.796;2023-04-21T06:48:55;99454.38;;;15.24;100.00
10668;BME280;5382;42.136;24.796;2023-04-21T06:51:21;99442.56;;;15.26;100.00
10668;BME280;5382;42.136;24.796;2023-04-21T06:53:48;99455.44;;;15.31;100.00
10668;BME280;5382;42.136;24.796;2023-04-21T06:56:15;99459.03;;;15.40;100.00
10668;BME280;5382;42.136;24.796;2023-04-21T06:58:42;99459.72;;;15.42;100.00
10668;BME280;5382;42.136;24.796;2023-04-21T07:01:11;99457.81;;;15.52;100.00
10668;BME280;5382;42.136;24.796;2023-04-21T07:03:37;99477.06;;;15.64;100.00
10668;BME280;5382;42.136;24.796;2023-04-21T07:06:06;99480.59;;;15.64;100.00
10668;BME280;5382;42.136;24.796;2023-04-21T07:08:33;99468.09;;;15.65;100.00
10668;BME280;5382;42.136;24.796;2023-04-21T07:11:00;99460.50;;;15.70;100.00
10668;BME280;5382;42.136;24.796;2023-04-21T07:13:27;99470.53;;;15.76;100.00
10668;BME280;5382;42.136;24.796;2023-04-21T07:15:54;99478.91;;;15.81;100.00
10668;BME280;5382;42.136;24.796;2023-04-21T07:18:21;99471.44;;;15.85;100.00
10668;BME280;5382;42.136;24.796;2023-04-21T07:20:47;99448.09;;;15.87;100.00
10668;BME280;5382;42.136;24.796;2023-04-21T07:23:16;99470.84;;;15.91;100.00
10668;BME280;5382;42.136;24.796;2023-04-21T07:25:43;99472.66;;;15.90;100.00
10668;BME280;5382;42.136;24.796;2023-04-21T07:28:10;99464.72;;;15.99;100.00
10668;BME280;5382;42.136;24.796;2023-04-21T07:30:39;99469.22;;;15.98;100.00
10668;BME280;5382;42.136;24.796;2023-04-21T07:33:06;99453.72;;;16.02;100.00
10668;BME280;5382;42.136;24.796;2023-04-21T07:35:33;99451.78;;;16.12;100.00
10668;BME280;5382;42.136;24.796;2023-04-21T07:38:00;99443.88;;;16.28;100.00
10668;BME280;5382;42.136;24.796;2023-04-21T07:40:28;99486.22;;;16.23;100.00
10668;BME280;5382;42.136;24.796;2023-04-21T07:42:55;99463.34;;;16.21;100.00
10668;BME280;5382;42.136;24.796;2023-04-21T07:45:22;99467.34;;;16.17;100.00
10668;BME280;5382;42.136;24.796;2023-04-21T07:47:48;99451.16;;;16.18;100.00
10668;BME280;5382;42.136;24.796;2023-04-21T07:50:15;99495.56;;;16.19;100.00
10668;BME280;5382;42.136;24.796;2023-04-21T07:52:42;99476.78;;;16.29;100.00
10668;BME280;5382;42.136;24.796;2023-04-21T07:55:09;99461.44;;;16.39;100.00
10668;BME280;5382;42.136;24.796;2023-04-21T07:57:39;99454.00;;;16.51;100.00
10668;BME280;5382;42.136;24.796;2023-04-21T08:00:07;99458.94;;;16.72;100.00
10668;BME280;5382;42.136;24.796;2023-04-21T08:02:34;99444.69;;;16.89;100.00
10668;BME280;5382;42.136;24.796;2023-04-21T08:05:02;99449.03;;;16.90;100.00
10668;BME280;5382;42.136;24.796;2023-04-21T08:07:29;99447.38;;;16.89;100.00
10668;BME280;5382;42.136;24.796;2023-04-21T08:09:56;99445.53;;;16.90;100.00
10668;BME280;5382;42.136;24.796;2023-04-21T08:12:22;99487.13;;;16.92;100.00
10668;BME280;5382;42.136;24.796;2023-04-21T08:14:51;99449.22;;;16.97;100.00
10668;BME280;5382;42.136;24.796;2023-04-21T08:17:17;99463.28;;;16.99;100.00
10668;BME280;5382;42.136;24.796;2023-04-21T08:19:44;99427.84;;;17.05;100.00
10668;BME280;5382;42.136;24.796;2023-04-21T08:22:11;99444.41;;;17.09;100.00
10668;BME280;5382;42.136;24.796;2023-04-21T08:24:38;99439.59;;;17.20;100.00
10668;BME280;5382;42.136;24.796;2023-04-21T08:27:04;99449.63;;;17.27;100.00
10668;BME280;5382;42.136;24.796;2023-04-21T08:29:31;99438.44;;;17.39;100.00
10668;BME280;5382;42.136;24.796;2023-04-21T08:31:59;99443.31;;;17.44;100.00
10668;BME280;5382;42.136;24.796;2023-04-21T08:34:26;99450.34;;;17.61;100.00
10668;BME280;5382;42.136;24.796;2023-04-21T08:36:53;99439.63;;;17.70;100.00
10668;BME280;5382;42.136;24.796;2023-04-21T08:39:20;99434.97;;;17.88;100.00
10668;BME280;5382;42.136;24.796;2023-04-21T08:41:47;99444.47;;;18.07;100.00
10668;BME280;5382;42.136;24.796;2023-04-21T08:44:15;99436.44;;;18.15;100.00
10668;BME280;5382;42.136;24.796;2023-04-21T08:46:44;99439.78;;;18.17;100.00
10668;BME280;5382;42.136;24.796;2023-04-21T08:49:17;99426.38;;;18.25;100.00
10668;BME280;5382;42.136;24.796;2023-04-21T08:51:45;99405.59;;;18.36;100.00
10668;BME280;5382;42.136;24.796;2023-04-21T08:54:12;99410.75;;;18.37;100.00
10668;BME280;5382;42.136;24.796;2023-04-21T08:56:39;99431.66;;;18.50;100.00
10668;BME280;5382;42.136;24.796;2023-04-21T08:59:05;99413.91;;;18.49;100.00
10668;BME280;5382;42.136;24.796;2023-04-21T09:01:32;99419.91;;;18.59;100.00
10668;BME280;5382;42.136;24.796;2023-04-21T09:04:15;99405.13;;;18.63;100.00
10668;BME280;5382;42.136;24.796;2023-04-21T09:06:43;99397.72;;;18.73;100.00
10668;BME280;5382;42.136;24.796;2023-04-21T09:09:10;99395.88;;;18.74;100.00
10668;BME280;5382;42.136;24.796;2023-04-21T09:11:37;99385.81;;;19.07;100.00
10668;BME280;5382;42.136;24.796;2023-04-21T09:14:04;99404.16;;;19.27;100.00
10668;BME280;5382;42.136;24.796;2023-04-21T09:16:31;99389.78;;;19.20;98.47
10668;BME280;5382;42.136;24.796;2023-04-21T09:18:59;99363.91;;;19.27;97.43
10668;BME280;5382;42.136;24.796;2023-04-21T09:21:28;99369.25;;;19.50;96.21
10668;BME280;5382;42.136;24.796;2023-04-21T09:23:56;99373.22;;;19.77;94.49
10668;BME280;5382;42.136;24.796;2023-04-21T09:26:22;99378.16;;;19.88;94.69
10668;BME280;5382;42.136;24.796;2023-04-21T09:28:50;99360.91;;;19.82;92.28
10668;BME280;5382;42.136;24.796;2023-04-21T09:31:19;99360.78;;;20.14;90.25
10668;BME280;5382;42.136;24.796;2023-04-21T09:33:47;99359.38;;;20.18;86.09
10668;BME280;5382;42.136;24.796;2023-04-21T09:36:18;99352.50;;;20.15;89.54
10668;BME280;5382;42.136;24.796;2023-04-21T09:38:54;99348.34;;;19.98;89.68
10668;BME280;5382;42.136;24.796;2023-04-21T09:41:23;99338.63;;;19.97;94.83
10668;BME280;5382;42.136;24.796;2023-04-21T09:43:50;99346.31;;;20.15;89.90
10668;BME280;5382;42.136;24.796;2023-04-21T09:46:18;99350.84;;;20.29;89.33
10668;BME280;5382;42.136;24.796;2023-04-21T09:48:46;99346.88;;;20.25;84.81
10668;BME280;5382;42.136;24.796;2023-04-21T09:51:14;99339.06;;;20.15;86.62
10668;BME280;5382;42.136;24.796;2023-04-21T09:53:43;99337.97;;;20.24;85.90
10668;BME280;5382;42.136;24.796;2023-04-21T09:56:13;99323.50;;;20.40;85.15
10668;BME280;5382;42.136;24.796;2023-04-21T09:58:45;99322.47;;;20.56;86.62
10668;BME280;5382;42.136;24.796;2023-04-21T10:01:14;99326.25;;;20.62;85.81
10668;BME280;5382;42.136;24.796;2023-04-21T10:03:43;99324.44;;;20.84;85.90
10668;BME280;5382;42.136;24.796;2023-04-21T10:06:11;99327.44;;;20.74;85.18
10668;BME280;5382;42.136;24.796;2023-04-21T10:08:38;99325.84;;;20.80;83.30
10668;BME280;5382;42.136;24.796;2023-04-21T10:11:05;99325.09;;;21.07;79.33
10668;BME280;5382;42.136;24.796;2023-04-21T10:13:36;99335.91;;;20.92;78.47
10668;BME280;5382;42.136;24.796;2023-04-21T10:16:04;99334.41;;;20.90;76.13
10668;BME280;5382;42.136;24.796;2023-04-21T10:18:34;99330.38;;;21.01;78.67
10668;BME280;5382;42.136;24.796;2023-04-21T10:21:05;99331.28;;;21.08;76.05
10668;BME280;5382;42.136;24.796;2023-04-21T10:23:36;99326.09;;;21.06;73.04
10668;BME280;5382;42.136;24.796;2023-04-21T10:26:08;99312.53;;;21.15;75.48
10668;BME280;5382;42.136;24.796;2023-04-21T10:28:47;99313.16;;;21.17;72.88
10668;BME280;5382;42.136;24.796;2023-04-21T10:31:19;99307.00;;;21.23;75.06
10668;BME280;5382;42.136;24.796;2023-04-21T10:34:14;99306.94;;;21.66;72.63
10668;BME280;5382;42.136;24.796;2023-04-21T10:36:47;99295.84;;;22.17;72.83
10668;BME280;5382;42.136;24.796;2023-04-21T10:39:24;99289.84;;;22.63;65.56
10668;BME280;5382;42.136;24.796;2023-04-21T10:41:54;99287.66;;;23.06;62.06
10668;BME280;5382;42.136;24.796;2023-04-21T10:44:23;99295.75;;;23.80;60.99
10668;BME280;5382;42.136;24.796;2023-04-21T10:46:53;99286.47;;;24.21;57.17
10668;BME280;5382;42.136;24.796;2023-04-21T10:49:21;99287.00;;;24.49;54.47
10668;BME280;5382;42.136;24.796;2023-04-21T10:52:06;99278.97;;;24.74;53.48
10668;BME280;5382;42.136;24.796;2023-04-21T10:54:40;99296.09;;;24.93;50.09
10668;BME280;5382;42.136;24.796;2023-04-21T10:57:09;99282.22;;;24.83;52.68
10668;BME280;5382;42.136;24.796;2023-04-21T10:59:38;99278.78;;;24.17;52.51
10668;BME280;5382;42.136;24.796;2023-04-21T11:02:05;99289.50;;;23.59;55.73
10668;BME280;5382;42.136;24.796;2023-04-21T11:04:32;99288.28;;;23.22;58.99
10668;BME280;5382;42.136;24.796;2023-04-21T11:07:06;99295.44;;;22.68;65.42
10668;BME280;5382;42.136;24.796;2023-04-21T11:09:33;99292.63;;;22.28;68.95
10668;BME280;5382;42.136;24.796;2023-04-21T11:12:02;99289.78;;;22.50;69.88
10668;BME280;5382;42.136;24.796;2023-04-21T11:14:29;99280.81;;;23.24;72.86
10668;BME280;5382;42.136;24.796;2023-04-21T11:16:57;99279.75;;;23.65;64.21
10668;BME280;5382;42.136;24.796;2023-04-21T11:19:24;99281.81;;;23.69;67.26
10668;BME280;5382;42.136;24.796;2023-04-21T11:21:52;99280.19;;;23.35;68.43
10668;BME280;5382;42.136;24.796;2023-04-21T11:24:20;99283.72;;;23.09;71.73
10668;BME280;5382;42.136;24.796;2023-04-21T11:26:47;99275.19;;;22.99;75.67
10668;BME280;5382;42.136;24.796;2023-04-21T11:29:14;99286.84;;;23.06;76.17
10668;BME280;5382;42.136;24.796;2023-04-21T11:31:43;99284.75;;;23.28;79.88
10668;BME280;5382;42.136;24.796;2023-04-21T11:34:12;99282.31;;;24.25;83.67
10668;BME280;5382;42.136;24.796;2023-04-21T11:36:41;99271.94;;;25.30;62.63
10668;BME280;5382;42.136;24.796;2023-04-21T11:39:10;99288.69;;;25.64;58.55
10668;BME280;5382;42.136;24.796;2023-04-21T11:41:40;99280.97;;;26.04;53.94
10668;BME280;5382;42.136;24.796;2023-04-21T11:44:07;99287.50;;;25.78;53.16
10668;BME280;5382;42.136;24.796;2023-04-21T11:46:34;99287.09;;;25.56;56.44
10668;BME280;5382;42.136;24.796;2023-04-21T11:49:03;99287.28;;;25.80;53.75
10668;BME280;5382;42.136;24.796;2023-04-21T11:51:36;99287.19;;;25.68;50.58
10668;BME280;5382;42.136;24.796;2023-04-21T11:54:05;99283.94;;;25.59;51.39
10668;BME280;5382;42.136;24.796;2023-04-21T11:56:34;99291.53;;;25.51;56.90
10668;BME280;5382;42.136;24.796;2023-04-21T11:59:05;99286.00;;;24.82;54.97
10668;BME280;5382;42.136;24.796;2023-04-21T12:01:33;99285.09;;;24.05;53.89
10668;BME280;5382;42.136;24.796;2023-04-21T12:04:02;99290.00;;;24.21;55.14
10668;BME280;5382;42.136;24.796;2023-04-21T12:06:29;99283.41;;;24.10;54.01
10668;BME280;5382;42.136;24.796;2023-04-21T12:09:01;99283.38;;;24.69;54.73
10668;BME280;5382;42.136;24.796;2023-04-21T12:11:29;99284.25;;;24.94;57.93
10668;BME280;5382;42.136;24.796;2023-04-21T12:13:56;99281.53;;;24.94;56.15
10668;BME280;5382;42.136;24.796;2023-04-21T12:16:23;99283.25;;;25.45;54.74
10668;BME280;5382;42.136;24.796;2023-04-21T12:18:52;99273.41;;;25.95;51.10
10668;BME280;5382;42.136;24.796;2023-04-21T12:21:19;99267.59;;;26.88;48.68
10668;BME280;5382;42.136;24.796;2023-04-21T12:23:46;99256.22;;;27.69;46.07
10668;BME280;5382;42.136;24.796;2023-04-21T12:26:14;99256.31;;;28.49;42.63
10668;BME280;5382;42.136;24.796;2023-04-21T12:28:41;99259.19;;;28.88;42.01
10668;BME280;5382;42.136;24.796;2023-04-21T12:31:07;99258.72;;;29.42;40.68
10668;BME280;5382;42.136;24.796;2023-04-21T12:33:34;99249.50;;;28.64;41.40
10668;BME280;5382;42.136;24.796;2023-04-21T12:36:01;99249.13;;;28.32;41.88
10668;BME280;5382;42.136;24.796;2023-04-21T12:38:28;99256.94;;;26.75;44.71
10668;BME280;5382;42.136;24.796;2023-04-21T12:40:55;99266.06;;;26.14;46.47
10668;BME280;5382;42.136;24.796;2023-04-21T12:43:23;99270.75;;;25.19;49.35
10668;BME280;5382;42.136;24.796;2023-04-21T12:45:50;99282.97;;;24.65;52.69
10668;BME280;5382;42.136;24.796;2023-04-21T12:48:17;99276.66;;;23.28;61.72
10668;BME280;5382;42.136;24.796;2023-04-21T12:50:44;99285.16;;;22.30;69.11
10668;BME280;5382;42.136;24.796;2023-04-21T12:53:12;99291.19;;;21.63;73.94
10668;BME280;5382;42.136;24.796;2023-04-21T12:55:39;99311.69;;;21.14;79.45